createdAt,value
2017-11-24T00:01:19.297Z,11.38
2017-11-24T00:03:46.804Z,11.37
2017-11-24T00:06:14.354Z,11.34
2017-11-24T00:08:41.908Z,11.32
2017-11-24T00:11:09.400Z,11.26
2017-11-24T00:13:36.941Z,11.20
2017-11-24T00:16:04.441Z,11.12
2017-11-24T00:18:31.950Z,11.05
2017-11-24T00:20:59.501Z,10.97
2017-11-24T00:23:26.985Z,10.86
2017-11-24T00:25:54.471Z,10.79
2017-11-24T00:28:21.996Z,10.72
2017-11-24T00:30:49.489Z,10.66
2017-11-24T00:33:17.016Z,10.60
2017-11-24T00:35:44.511Z,10.56
2017-11-24T00:38:12.003Z,10.53
2017-11-24T00:40:39.559Z,10.53
2017-11-24T00:43:07.056Z,10.55
2017-11-24T00:45:34.557Z,10.60
2017-11-24T00:48:02.092Z,10.64
2017-11-24T00:50:29.591Z,10.69
2017-11-24T00:52:57.090Z,10.71
2017-11-24T00:55:24.700Z,10.72
2017-11-24T00:57:52.204Z,10.68
2017-11-24T01:00:19.728Z,10.62
2017-11-24T01:02:47.246Z,10.61
2017-11-24T01:05:14.774Z,10.63
2017-11-24T01:07:42.298Z,10.67
2017-11-24T01:10:09.863Z,10.71
2017-11-24T01:12:37.401Z,10.75
2017-11-24T01:15:04.923Z,10.76
2017-11-24T01:17:32.413Z,10.77
2017-11-24T01:19:59.932Z,10.76
2017-11-24T01:22:27.462Z,10.75
2017-11-24T01:24:54.958Z,10.74
2017-11-24T01:27:22.493Z,10.72
2017-11-24T01:29:49.980Z,10.72
2017-11-24T01:32:17.582Z,10.75
2017-11-24T01:34:45.140Z,10.78
2017-11-24T01:37:12.715Z,10.79
2017-11-24T01:39:40.214Z,10.80
2017-11-24T01:42:07.736Z,10.80
2017-11-24T01:44:35.277Z,10.78
2017-11-24T01:47:02.777Z,10.76
2017-11-24T01:49:30.295Z,10.76
2017-11-24T01:51:57.812Z,10.76
2017-11-24T01:54:25.399Z,10.76
2017-11-24T01:56:52.890Z,10.76
2017-11-24T01:59:20.754Z,10.77
2017-11-24T02:01:48.260Z,10.79
2017-11-24T02:04:15.759Z,10.80
2017-11-24T02:06:43.290Z,10.82
2017-11-24T02:09:10.814Z,10.83
2017-11-24T02:11:38.311Z,10.83
2017-11-24T02:14:05.826Z,10.83
2017-11-24T02:16:33.347Z,10.84
2017-11-24T02:19:00.854Z,10.84
2017-11-24T02:21:28.353Z,10.82
2017-11-24T02:23:55.917Z,10.81
2017-11-24T02:26:23.425Z,10.78
2017-11-24T02:28:50.965Z,10.76
2017-11-24T02:31:18.461Z,10.74
2017-11-24T02:33:45.969Z,10.75
2017-11-24T02:36:13.510Z,10.76
2017-11-24T02:38:41.011Z,10.75
2017-11-24T02:41:08.512Z,10.75
2017-11-24T02:43:36.029Z,10.76
2017-11-24T02:46:03.545Z,10.77
2017-11-24T02:48:31.080Z,10.78
2017-11-24T02:50:58.598Z,10.78
2017-11-24T02:53:26.156Z,10.75
2017-11-24T02:55:53.690Z,10.74
2017-11-24T02:58:21.206Z,10.74
2017-11-24T03:00:48.707Z,10.73
2017-11-24T03:03:16.230Z,10.69
2017-11-24T03:05:43.721Z,10.67
2017-11-24T03:08:11.263Z,10.68
2017-11-24T03:10:38.791Z,10.68
2017-11-24T03:13:06.324Z,10.68
2017-11-24T03:15:33.861Z,10.69
2017-11-24T03:20:35.167Z,10.73
2017-11-24T03:23:02.652Z,10.73
2017-11-24T03:25:30.312Z,10.74
2017-11-24T03:27:57.839Z,10.75
2017-11-24T03:30:25.374Z,10.76
2017-11-24T03:32:52.878Z,10.75
2017-11-24T03:35:20.463Z,10.74
2017-11-24T03:37:47.988Z,10.73
2017-11-24T03:40:15.493Z,10.73
2017-11-24T03:42:43.003Z,10.73
2017-11-24T03:45:10.535Z,10.76
2017-11-24T03:47:38.061Z,10.78
2017-11-24T03:50:05.554Z,10.79
2017-11-24T03:52:33.087Z,10.71
2017-11-24T03:55:00.584Z,10.64
2017-11-24T03:57:28.084Z,10.59
2017-11-24T03:59:55.588Z,10.54
2017-11-24T04:02:23.099Z,10.53
2017-11-24T04:04:50.680Z,10.54
2017-11-24T04:07:18.206Z,10.53
2017-11-24T04:09:45.697Z,10.54
2017-11-24T04:12:13.185Z,10.52
2017-11-24T04:14:40.705Z,10.51
2017-11-24T04:17:08.206Z,10.47
2017-11-24T04:19:35.712Z,10.47
2017-11-24T04:22:03.386Z,10.45
2017-11-24T04:24:30.896Z,10.39
2017-11-24T04:26:58.507Z,10.36
2017-11-24T04:29:26.031Z,10.33
2017-11-24T04:31:53.526Z,10.31
2017-11-24T04:34:21.017Z,10.28
2017-11-24T04:36:48.536Z,10.25
2017-11-24T04:39:16.045Z,10.21
2017-11-24T04:41:43.544Z,10.14
2017-11-24T04:44:11.198Z,10.07
2017-11-24T04:46:38.696Z,10.01
2017-11-24T04:49:06.196Z,10.04
2017-11-24T04:51:33.717Z,10.09
2017-11-24T04:54:01.248Z,10.15
2017-11-24T04:56:28.745Z,10.19
2017-11-24T04:58:56.244Z,10.21
2017-11-24T05:01:23.773Z,10.23
2017-11-24T05:03:51.304Z,10.24
2017-11-24T05:06:18.793Z,10.26
2017-11-24T05:08:46.333Z,10.28
2017-11-24T05:11:13.866Z,10.30
2017-11-24T05:13:41.363Z,10.30
2017-11-24T05:16:08.906Z,10.30
2017-11-24T05:18:36.402Z,10.29
2017-11-24T05:21:03.913Z,10.29
2017-11-24T05:23:31.528Z,10.31
2017-11-24T05:25:59.111Z,10.31
2017-11-24T05:28:26.667Z,10.29
2017-11-24T05:30:54.192Z,10.27
2017-11-24T05:33:21.768Z,10.18
2017-11-24T05:35:49.265Z,10.10
2017-11-24T05:38:16.792Z,10.06
2017-11-24T05:40:44.324Z,10.04
2017-11-24T05:43:11.825Z,10.00
2017-11-24T05:45:39.308Z,9.99
2017-11-24T05:48:06.850Z,9.98
2017-11-24T05:50:34.340Z,10.03
2017-11-24T05:53:01.853Z,10.09
2017-11-24T05:55:29.382Z,10.14
2017-11-24T05:57:56.883Z,10.17
2017-11-24T06:00:25.058Z,10.20
2017-11-24T06:02:52.610Z,10.24
2017-11-24T06:05:20.118Z,10.27
2017-11-24T06:07:47.631Z,10.29
2017-11-24T06:10:15.177Z,10.32
2017-11-24T06:12:42.679Z,10.33
2017-11-24T06:15:10.180Z,10.33
2017-11-24T06:17:37.729Z,10.34
2017-11-24T06:20:05.232Z,10.36
2017-11-24T06:22:32.724Z,10.38
2017-11-24T06:25:00.265Z,10.39
2017-11-24T06:27:27.765Z,10.42
2017-11-24T06:29:55.259Z,10.40
2017-11-24T06:32:22.801Z,10.39
2017-11-24T06:34:50.316Z,10.36
2017-11-24T06:37:17.817Z,10.33
2017-11-24T06:39:45.354Z,10.34
2017-11-24T06:42:12.852Z,10.32
2017-11-24T06:44:40.342Z,10.32
2017-11-24T06:47:07.865Z,10.33
2017-11-24T06:49:35.393Z,10.33
2017-11-24T06:52:02.888Z,10.35
2017-11-24T06:54:30.419Z,10.38
2017-11-24T06:56:58.183Z,10.39
2017-11-24T06:59:25.679Z,10.41
2017-11-24T07:01:53.164Z,10.44
2017-11-24T07:04:20.694Z,10.50
2017-11-24T07:06:48.184Z,10.57
2017-11-24T07:09:15.676Z,10.59
2017-11-24T07:11:43.244Z,10.59
2017-11-24T07:14:10.729Z,10.57
2017-11-24T07:16:38.261Z,10.57
2017-11-24T07:19:05.741Z,10.57
2017-11-24T07:21:33.232Z,10.58
2017-11-24T07:24:00.764Z,10.61
2017-11-24T07:26:28.253Z,10.62
2017-11-24T07:28:55.753Z,10.62
2017-11-24T07:31:23.270Z,10.65
2017-11-24T07:33:50.761Z,10.65
2017-11-24T07:36:18.326Z,10.70
2017-11-24T07:38:45.835Z,10.76
2017-11-24T07:41:13.332Z,10.82
2017-11-24T07:43:40.880Z,10.87
2017-11-24T07:46:08.376Z,10.93
2017-11-24T07:48:35.870Z,10.96
2017-11-24T07:51:03.425Z,11.00
2017-11-24T07:53:30.922Z,11.00
2017-11-24T07:55:58.414Z,10.96
2017-11-24T07:58:25.963Z,11.00
2017-11-24T08:00:53.585Z,11.02
2017-11-24T08:03:21.088Z,11.03
2017-11-24T08:05:48.604Z,11.08
2017-11-24T08:08:16.144Z,11.16
2017-11-24T08:10:43.634Z,11.23
2017-11-24T08:13:11.127Z,11.25
2017-11-24T08:15:38.650Z,11.23
2017-11-24T08:18:06.154Z,11.23
2017-11-24T08:20:33.758Z,11.27
2017-11-24T08:23:01.250Z,11.33
2017-11-24T08:25:28.746Z,11.41
2017-11-24T08:27:56.278Z,11.46
2017-11-24T08:30:23.769Z,11.49
2017-11-24T08:32:51.256Z,11.55
2017-11-24T08:35:18.793Z,11.60
2017-11-24T08:37:46.309Z,11.59
2017-11-24T08:40:13.810Z,11.55
2017-11-24T08:42:41.330Z,11.51
2017-11-24T08:45:08.828Z,11.49
2017-11-24T08:47:41.859Z,11.59
2017-11-24T08:50:09.348Z,11.63
2017-11-24T08:52:36.881Z,11.66
2017-11-24T08:55:04.392Z,11.67
2017-11-24T08:57:31.897Z,11.61
2017-11-24T08:59:59.413Z,11.66
2017-11-24T09:02:26.900Z,11.68
2017-11-24T09:04:54.413Z,11.66
2017-11-24T09:07:21.898Z,11.66
2017-11-24T09:09:49.427Z,11.73
2017-11-24T09:12:16.922Z,11.77
2017-11-24T09:14:44.408Z,11.82
2017-11-24T09:17:11.940Z,11.83
2017-11-24T09:19:39.440Z,11.89
2017-11-24T09:22:06.964Z,11.92
2017-11-24T09:24:34.510Z,11.95
2017-11-24T09:27:02.004Z,12.05
2017-11-24T09:29:29.496Z,12.11
2017-11-24T09:31:57.015Z,12.11
2017-11-24T09:34:24.515Z,12.16
2017-11-24T09:36:52.009Z,12.31
2017-11-24T09:39:19.528Z,12.44
2017-11-24T09:41:47.071Z,12.56
2017-11-24T09:44:14.565Z,12.66
2017-11-24T09:46:42.159Z,12.75
2017-11-24T09:49:09.685Z,12.79
2017-11-24T09:51:37.186Z,12.83
2017-11-24T09:54:04.672Z,12.86
2017-11-24T09:56:32.207Z,12.93
2017-11-24T09:58:59.693Z,12.97
2017-11-24T10:01:27.181Z,13.02
2017-11-24T10:03:54.738Z,13.06
2017-11-24T10:06:22.245Z,13.11
2017-11-24T10:08:49.741Z,13.24
2017-11-24T10:11:17.283Z,13.36
2017-11-24T10:13:44.844Z,13.46
2017-11-24T10:16:12.342Z,13.51
2017-11-24T10:18:39.866Z,13.57
2017-11-24T10:21:12.927Z,13.61
2017-11-24T10:23:40.542Z,13.70
2017-11-24T10:26:08.036Z,13.75
2017-11-24T10:28:35.537Z,13.84
2017-11-24T10:31:03.065Z,14.01
2017-11-24T10:33:30.561Z,14.12
2017-11-24T10:35:58.123Z,14.21
2017-11-24T10:38:25.669Z,14.35
2017-11-24T10:40:53.162Z,14.47
2017-11-24T10:43:20.657Z,14.55
2017-11-24T10:45:48.198Z,14.57
2017-11-24T10:48:15.687Z,14.59
2017-11-24T10:50:43.191Z,14.62
2017-11-24T10:53:10.728Z,14.63
2017-11-24T10:55:38.220Z,14.62
2017-11-24T10:58:05.716Z,14.63
2017-11-24T11:00:33.255Z,14.63
2017-11-24T11:03:00.765Z,14.64
2017-11-24T11:05:28.325Z,14.64
2017-11-24T11:07:55.885Z,14.64
2017-11-24T11:10:23.388Z,14.63
2017-11-24T11:12:50.880Z,14.64
2017-11-24T11:15:18.478Z,14.72
2017-11-24T11:17:45.968Z,14.77
2017-11-24T11:20:13.484Z,14.84
2017-11-24T11:22:41.016Z,14.76
2017-11-24T11:25:08.590Z,14.69
2017-11-24T11:27:36.073Z,14.69
2017-11-24T11:30:03.594Z,14.68
2017-11-24T11:32:31.124Z,14.69
2017-11-24T11:34:58.635Z,14.72
2017-11-24T11:37:26.133Z,14.76
2017-11-24T11:39:53.684Z,14.84
2017-11-24T11:42:21.160Z,14.92
2017-11-24T11:44:48.652Z,14.95
2017-11-24T11:47:16.199Z,14.89
2017-11-24T11:49:43.719Z,14.88
2017-11-24T11:52:11.229Z,14.82
2017-11-24T11:54:38.756Z,14.74
2017-11-24T11:57:06.266Z,14.67
2017-11-24T11:59:33.816Z,14.67
2017-11-24T12:02:01.309Z,14.63
2017-11-24T12:04:28.839Z,14.63
2017-11-24T12:06:56.364Z,14.61
2017-11-24T12:09:23.860Z,14.59
2017-11-24T12:11:51.353Z,14.56
2017-11-24T12:14:18.877Z,14.49
2017-11-24T12:16:46.368Z,14.46
2017-11-24T12:19:13.918Z,14.46
2017-11-24T12:21:41.439Z,14.47
2017-11-24T12:24:08.927Z,14.48
2017-11-24T12:26:36.451Z,14.56
2017-11-24T12:29:04.027Z,14.68
2017-11-24T12:31:31.525Z,14.76
2017-11-24T12:33:59.048Z,14.75
2017-11-24T12:36:26.528Z,14.67
2017-11-24T12:38:54.048Z,14.60
2017-11-24T12:41:21.573Z,14.55
2017-11-24T12:43:49.105Z,14.53
2017-11-24T12:46:16.635Z,14.50
2017-11-24T12:48:44.196Z,14.47
2017-11-24T12:51:11.726Z,14.42
2017-11-24T12:53:39.269Z,14.38
2017-11-24T12:56:06.777Z,14.35
2017-11-24T12:58:34.273Z,14.32
2017-11-24T13:01:01.814Z,14.33
2017-11-24T13:03:29.316Z,14.33
2017-11-24T13:05:56.808Z,14.31
2017-11-24T13:08:24.325Z,13.87
2017-11-24T13:10:51.841Z,13.40
2017-11-24T13:13:19.330Z,13.07
2017-11-24T13:15:46.818Z,12.82
2017-11-24T13:18:14.376Z,12.61
2017-11-24T13:20:41.869Z,12.48
2017-11-24T13:23:09.408Z,12.43
2017-11-24T13:25:36.977Z,12.35
2017-11-24T13:28:04.535Z,12.20
2017-11-24T13:30:32.072Z,12.04
2017-11-24T13:32:59.639Z,11.87
2017-11-24T13:35:27.134Z,11.72
2017-11-24T13:37:54.753Z,11.61
2017-11-24T13:40:22.245Z,11.56
2017-11-24T13:42:49.750Z,11.55
2017-11-24T13:45:17.284Z,11.53
2017-11-24T13:47:44.774Z,11.50
2017-11-24T13:50:12.265Z,11.45
2017-11-24T13:52:39.778Z,11.41
2017-11-24T13:55:07.273Z,11.40
2017-11-24T13:57:34.881Z,11.39
2017-11-24T14:00:02.389Z,11.36
2017-11-24T14:02:29.888Z,11.36
2017-11-24T14:04:57.414Z,11.30
2017-11-24T14:07:24.927Z,11.23
2017-11-24T14:09:52.435Z,11.14
2017-11-24T14:12:19.972Z,11.11
2017-11-24T14:14:47.465Z,11.06
2017-11-24T14:17:14.984Z,11.03
2017-11-24T14:19:42.509Z,11.02
2017-11-24T14:22:10.013Z,11.01
2017-11-24T14:24:37.528Z,10.99
2017-11-24T14:27:05.240Z,10.99
2017-11-24T14:29:32.723Z,10.90
2017-11-24T14:32:00.216Z,10.85
2017-11-24T14:34:27.739Z,10.83
2017-11-24T14:36:55.295Z,10.82
2017-11-24T14:39:22.785Z,10.75
2017-11-24T14:41:50.289Z,10.66
2017-11-24T14:44:17.845Z,10.48
2017-11-24T14:46:45.370Z,10.32
2017-11-24T14:49:12.867Z,10.14
2017-11-24T14:51:40.372Z,10.11
2017-11-24T14:54:07.960Z,10.02
2017-11-24T14:56:35.465Z,10.02
2017-11-24T14:59:02.968Z,10.02
2017-11-24T15:01:30.540Z,9.98
2017-11-24T15:03:58.033Z,9.86
2017-11-24T15:06:25.660Z,9.76
2017-11-24T15:08:53.154Z,9.74
2017-11-24T15:11:20.646Z,9.74
2017-11-24T15:13:48.186Z,9.71
2017-11-24T15:16:15.736Z,9.61
2017-11-24T15:18:43.237Z,9.52
2017-11-24T15:21:10.758Z,9.44
2017-11-24T15:23:38.272Z,9.43
2017-11-24T15:26:05.804Z,9.43
2017-11-24T15:28:33.292Z,9.42
2017-11-24T15:31:00.781Z,9.37
2017-11-24T15:33:28.326Z,9.30
2017-11-24T15:35:55.809Z,9.32
2017-11-24T15:38:23.301Z,9.29
2017-11-24T15:40:50.832Z,9.28
2017-11-24T15:43:18.338Z,9.24
2017-11-24T15:45:45.824Z,9.24
2017-11-24T15:48:13.364Z,9.33
2017-11-24T15:50:40.870Z,9.29
2017-11-24T15:53:08.375Z,9.21
2017-11-24T15:55:35.900Z,9.08
2017-11-24T15:58:03.399Z,9.00
2017-11-24T16:00:30.890Z,9.00
2017-11-24T16:02:58.419Z,8.89
2017-11-24T16:05:25.905Z,8.86
2017-11-24T16:07:53.393Z,8.85
2017-11-24T16:10:20.921Z,8.82
2017-11-24T16:12:48.415Z,8.77
2017-11-24T16:15:15.925Z,8.66
2017-11-24T16:17:43.468Z,8.59
2017-11-24T16:20:10.966Z,8.51
2017-11-24T16:22:38.461Z,8.45
2017-11-24T16:25:05.994Z,8.37
2017-11-24T16:27:33.490Z,8.29
2017-11-24T16:30:00.988Z,8.16
2017-11-24T16:32:28.511Z,8.04
2017-11-24T16:34:56.053Z,8.01
2017-11-24T16:37:23.545Z,8.06
2017-11-24T16:39:51.073Z,8.08
2017-11-24T16:42:18.570Z,8.04
2017-11-24T16:44:46.059Z,8.05
2017-11-24T16:47:13.950Z,8.08
2017-11-24T16:49:41.528Z,8.09
2017-11-24T16:52:09.018Z,8.07
2017-11-24T16:54:36.524Z,8.13
2017-11-24T16:57:04.016Z,8.09
2017-11-24T16:59:31.548Z,8.07
2017-11-24T17:01:59.120Z,8.08
2017-11-24T17:04:26.619Z,8.07
2017-11-24T17:06:54.148Z,8.04
2017-11-24T17:09:21.658Z,8.05
2017-11-24T17:11:49.151Z,8.12
2017-11-24T17:14:16.693Z,8.24
2017-11-24T17:16:45.072Z,8.30
2017-11-24T17:19:12.565Z,8.29
2017-11-24T17:21:40.107Z,8.20
2017-11-24T17:24:07.627Z,8.19
2017-11-24T17:26:35.118Z,8.20
2017-11-24T17:29:02.659Z,8.23
2017-11-24T17:31:30.152Z,8.27
2017-11-24T17:33:57.754Z,8.23
2017-11-24T17:36:25.304Z,8.25
2017-11-24T17:38:52.915Z,8.29
2017-11-24T17:41:20.413Z,8.28
2017-11-24T17:43:48.140Z,8.28
2017-11-24T17:46:15.637Z,8.27
2017-11-24T17:48:43.140Z,8.28
2017-11-24T17:51:10.698Z,8.15
2017-11-24T17:53:38.193Z,8.06
2017-11-24T17:56:05.708Z,8.07
2017-11-24T17:58:33.238Z,8.19
2017-11-24T18:01:00.787Z,8.17
2017-11-24T18:03:28.285Z,8.15
2017-11-24T18:05:55.812Z,8.09
2017-11-24T18:08:23.407Z,8.11
2017-11-24T18:10:50.913Z,8.08
2017-11-24T18:13:18.426Z,8.00
2017-11-24T18:15:46.011Z,7.98
2017-11-24T18:18:13.513Z,7.87
2017-11-24T18:20:41.123Z,7.74
2017-11-24T18:23:08.652Z,7.64
2017-11-24T18:25:36.141Z,7.60
2017-11-24T18:28:03.926Z,7.57
2017-11-24T18:30:31.523Z,7.53
2017-11-24T18:32:59.184Z,7.53
2017-11-24T18:35:26.891Z,7.54
2017-11-24T18:37:54.481Z,7.55
2017-11-24T18:40:22.115Z,7.60
2017-11-24T18:42:49.654Z,7.64
2017-11-24T18:45:17.189Z,7.65
2017-11-24T18:47:44.695Z,7.62
2017-11-24T18:50:12.558Z,7.64
2017-11-24T18:52:40.188Z,7.69
2017-11-24T18:55:07.716Z,7.71
2017-11-24T18:57:35.220Z,7.72
2017-11-24T19:00:02.995Z,7.73
2017-11-24T19:02:30.540Z,7.70
2017-11-24T19:04:58.180Z,7.67
2017-11-24T19:07:25.831Z,7.65
2017-11-24T19:09:53.342Z,7.73
2017-11-24T19:12:20.860Z,7.76
2017-11-24T19:14:48.398Z,7.75
2017-11-24T19:17:15.911Z,7.70
2017-11-24T19:19:43.406Z,7.67
2017-11-24T19:22:11.048Z,7.66
2017-11-24T19:24:38.679Z,7.66
2017-11-24T19:27:06.189Z,7.63
2017-11-24T19:29:33.782Z,7.61
2017-11-24T19:32:01.520Z,7.60
2017-11-24T19:34:29.041Z,7.59
2017-11-24T19:36:56.585Z,7.61
2017-11-24T19:39:24.201Z,7.62
2017-11-24T19:41:51.810Z,7.63
2017-11-24T19:44:19.383Z,7.62
2017-11-24T19:46:47.153Z,7.62
2017-11-24T19:49:14.663Z,7.63
2017-11-24T19:51:42.238Z,7.63
2017-11-24T19:54:09.739Z,7.66
2017-11-24T19:56:37.410Z,7.65
2017-11-24T19:59:05.000Z,7.61
2017-11-24T20:01:32.511Z,7.60
2017-11-24T20:04:00.309Z,7.54
2017-11-24T20:06:27.840Z,7.49
2017-11-24T20:08:55.382Z,7.42
2017-11-24T20:11:22.889Z,7.35
2017-11-24T20:13:50.453Z,7.28
2017-11-24T20:16:17.950Z,7.27
2017-11-24T20:18:45.544Z,7.22
2017-11-24T20:21:13.107Z,7.14
2017-11-24T20:23:40.608Z,7.09
2017-11-24T20:26:08.109Z,7.06
2017-11-24T20:28:36.466Z,7.07
2017-11-24T20:31:04.027Z,7.09
2017-11-24T20:33:31.534Z,7.11
2017-11-24T20:35:59.071Z,7.18
2017-11-24T20:38:26.595Z,7.26
2017-11-24T20:41:05.026Z,7.26
2017-11-24T20:43:33.244Z,7.24
2017-11-24T20:46:00.745Z,7.21
2017-11-24T20:48:28.294Z,7.26
2017-11-24T20:50:55.795Z,7.31
2017-11-24T20:53:23.291Z,7.33
2017-11-24T20:55:50.813Z,7.34
2017-11-24T20:58:18.341Z,7.51
2017-11-24T21:00:45.828Z,7.74
2017-11-24T21:03:13.356Z,7.63
2017-11-24T21:05:40.876Z,7.50
2017-11-24T21:08:08.381Z,7.39
2017-11-24T21:10:35.916Z,7.31
2017-11-24T21:13:03.424Z,7.21
2017-11-24T21:15:30.954Z,7.20
2017-11-24T21:17:58.458Z,7.11
2017-11-24T21:20:25.971Z,7.06
2017-11-24T21:22:53.505Z,7.02
2017-11-24T21:25:21.077Z,7.01
2017-11-24T21:27:48.572Z,6.97
2017-11-24T21:30:16.070Z,6.94
2017-11-24T21:32:43.695Z,6.99
2017-11-24T21:35:11.200Z,6.99
2017-11-24T21:37:38.715Z,7.01
2017-11-24T21:40:06.268Z,7.05
2017-11-24T21:42:33.770Z,7.01
2017-11-24T21:45:01.293Z,6.93
2017-11-24T21:47:28.828Z,6.87
2017-11-24T21:49:56.366Z,6.93
2017-11-24T21:52:23.923Z,6.89
2017-11-24T21:54:51.456Z,6.87
2017-11-24T21:57:18.968Z,6.88
2017-11-24T21:59:46.483Z,6.85
2017-11-24T22:02:14.084Z,6.79
2017-11-24T22:04:41.576Z,6.77
2017-11-24T22:07:09.071Z,6.76
2017-11-24T22:09:36.634Z,6.75
2017-11-24T22:12:04.129Z,6.80
2017-11-24T22:14:31.697Z,6.93
2017-11-24T22:16:59.212Z,6.93
2017-11-24T22:19:26.702Z,6.93
2017-11-24T22:21:54.330Z,6.94
2017-11-24T22:24:21.817Z,6.91
2017-11-24T22:26:49.314Z,6.86
2017-11-24T22:29:16.829Z,6.83
2017-11-24T22:31:44.373Z,6.84
2017-11-24T22:34:11.865Z,6.86
2017-11-24T22:36:39.399Z,6.86
2017-11-24T22:39:06.937Z,6.88
2017-11-24T22:41:34.433Z,6.89
2017-11-24T22:44:01.926Z,6.89
2017-11-24T22:46:29.438Z,6.97
2017-11-24T22:48:56.966Z,6.83
2017-11-24T22:51:24.518Z,6.70
2017-11-24T22:53:52.013Z,6.64
2017-11-24T22:56:19.538Z,6.59
2017-11-24T22:58:47.079Z,6.61
2017-11-24T23:01:14.626Z,6.52
2017-11-24T23:03:42.225Z,6.52
2017-11-24T23:06:09.737Z,6.47
2017-11-24T23:08:37.230Z,6.44
2017-11-24T23:11:04.877Z,6.43
2017-11-24T23:13:32.377Z,6.37
2017-11-24T23:15:59.875Z,6.33
2017-11-24T23:18:27.425Z,6.39
2017-11-24T23:20:55.037Z,6.47
2017-11-24T23:23:22.525Z,6.48
2017-11-24T23:25:50.040Z,6.50
2017-11-24T23:28:17.607Z,6.48
2017-11-24T23:30:45.101Z,6.48
2017-11-24T23:33:12.736Z,6.52
2017-11-24T23:35:40.290Z,6.54
2017-11-24T23:38:07.825Z,6.51
2017-11-24T23:40:35.325Z,6.48
2017-11-24T23:43:02.868Z,6.50
2017-11-24T23:45:30.371Z,6.51
2017-11-24T23:47:57.864Z,6.51
2017-11-24T23:50:25.392Z,6.53
2017-11-24T23:52:52.885Z,6.57
2017-11-24T23:55:20.382Z,6.59
2017-11-24T23:57:47.909Z,6.62
